Hebron, New Hampshire
Current Conditions -  °F | °C
As of 9:35 AM on Sunday 25 Jan 2015 (Local Time) from K1P1 Reporting Station
Scattered Clouds Scattered Clouds  
Wind Chill: 11°   Ceiling: Unl
Heat Index: 25°   Visibility: 10mi
Dew Point: 13°   Wind: 17mph
Humidity: 62%   Direction: 290°WNW
Pressure: 29.54"   Gusts: 25mph
Location:  43.69°N, 71.81°W
Report Text: K1P1 251435Z AUTO 29015G22KT 10SM SCT037 SCT050 M04/M10 A2954 RMK AO2 T10401103
Loading
Personal Weather Stations






























Interactive Weather Map New forecast layout! Learn more

10-Day Weather Forecast

Advertisements
Track Severe Weather on mobile